sensor_id;sensor_type;location;lat;lon;timestamp;pressure;altitude;pressure_sealevel;temperature;humidity
27144;BME280;14672;50.250;8.312;2022-08-03T00:01:36;98873.72;;;22.64;53.61
27144;BME280;14672;50.250;8.312;2022-08-03T00:04:11;98878.19;;;22.65;53.60
27144;BME280;14672;50.250;8.312;2022-08-03T00:06:37;98881.38;;;22.62;53.73
27144;BME280;14672;50.250;8.312;2022-08-03T00:09:04;98874.56;;;22.59;53.77
27144;BME280;14672;50.250;8.312;2022-08-03T00:11:30;98875.66;;;22.56;53.91
27144;BME280;14672;50.250;8.312;2022-08-03T00:13:56;98875.41;;;22.54;53.76
27144;BME280;14672;50.250;8.312;2022-08-03T00:16:22;98877.28;;;22.52;53.83
27144;BME280;14672;50.250;8.312;2022-08-03T00:18:49;98884.22;;;22.37;54.20
27144;BME280;14672;50.250;8.312;2022-08-03T00:21:16;98876.00;;;22.47;53.97
27144;BME280;14672;50.250;8.312;2022-08-03T00:23:42;98878.66;;;22.45;53.94
27144;BME280;14672;50.250;8.312;2022-08-03T00:26:07;98877.63;;;22.42;54.09
27144;BME280;14672;50.250;8.312;2022-08-03T00:28:33;98873.41;;;22.43;53.91
27144;BME280;14672;50.250;8.312;2022-08-03T00:30:59;98874.03;;;22.31;54.26
27144;BME280;14672;50.250;8.312;2022-08-03T00:33:26;98870.84;;;22.34;54.34
27144;BME280;14672;50.250;8.312;2022-08-03T00:35:52;98874.81;;;22.31;54.08
27144;BME280;14672;50.250;8.312;2022-08-03T00:38:18;98882.22;;;22.27;54.38
27144;BME280;14672;50.250;8.312;2022-08-03T00:40:45;98886.75;;;22.22;54.23
27144;BME280;14672;50.250;8.312;2022-08-03T00:43:11;98882.22;;;22.27;54.08
27144;BME280;14672;50.250;8.312;2022-08-03T00:45:39;98871.78;;;22.18;54.32
27144;BME280;14672;50.250;8.312;2022-08-03T00:48:08;98878.34;;;22.19;54.22
27144;BME280;14672;50.250;8.312;2022-08-03T00:50:38;98884.19;;;22.13;54.32
27144;BME280;14672;50.250;8.312;2022-08-03T00:53:06;98878.75;;;22.04;54.46
27144;BME280;14672;50.250;8.312;2022-08-03T00:55:35;98881.88;;;22.06;54.71
27144;BME280;14672;50.250;8.312;2022-08-03T00:58:03;98871.91;;;22.01;54.69
27144;BME280;14672;50.250;8.312;2022-08-03T01:00:34;98867.47;;;22.00;55.08
27144;BME280;14672;50.250;8.312;2022-08-03T01:03:05;98872.75;;;21.96;54.75
27144;BME280;14672;50.250;8.312;2022-08-03T01:06:02;98868.00;;;21.99;54.79
27144;BME280;14672;50.250;8.312;2022-08-03T01:14:14;98865.44;;;21.84;55.04
27144;BME280;14672;50.250;8.312;2022-08-03T01:20:16;98862.56;;;21.79;55.20
27144;BME280;14672;50.250;8.312;2022-08-03T01:31:43;98864.56;;;21.54;56.01
27144;BME280;14672;50.250;8.312;2022-08-03T01:34:14;98860.38;;;21.55;56.07
27144;BME280;14672;50.250;8.312;2022-08-03T01:36:48;98854.59;;;21.55;56.03
27144;BME280;14672;50.250;8.312;2022-08-03T01:39:16;98860.13;;;21.53;56.28
27144;BME280;14672;50.250;8.312;2022-08-03T01:41:50;98853.00;;;21.54;56.23
27144;BME280;14672;50.250;8.312;2022-08-03T01:44:20;98854.09;;;21.51;56.44
27144;BME280;14672;50.250;8.312;2022-08-03T01:46:47;98852.25;;;21.53;56.13
27144;BME280;14672;50.250;8.312;2022-08-03T01:49:17;98854.16;;;21.40;56.51
27144;BME280;14672;50.250;8.312;2022-08-03T01:51:46;98859.22;;;21.28;56.74
27144;BME280;14672;50.250;8.312;2022-08-03T01:54:14;98855.28;;;21.26;57.03
27144;BME280;14672;50.250;8.312;2022-08-03T01:56:42;98854.16;;;21.34;56.66
27144;BME280;14672;50.250;8.312;2022-08-03T01:59:09;98848.94;;;21.33;56.51
27144;BME280;14672;50.250;8.312;2022-08-03T02:01:37;98853.94;;;21.32;56.39
27144;BME280;14672;50.250;8.312;2022-08-03T02:04:04;98853.44;;;21.23;56.93
27144;BME280;14672;50.250;8.312;2022-08-03T02:06:32;98852.06;;;21.35;56.42
27144;BME280;14672;50.250;8.312;2022-08-03T02:08:59;98852.84;;;21.35;56.67
27144;BME280;14672;50.250;8.312;2022-08-03T02:11:30;98849.72;;;21.33;56.46
27144;BME280;14672;50.250;8.312;2022-08-03T02:13:59;98852.84;;;21.35;56.42
27144;BME280;14672;50.250;8.312;2022-08-03T02:16:28;98843.66;;;21.37;56.46
27144;BME280;14672;50.250;8.312;2022-08-03T02:18:57;98852.13;;;21.29;56.87
27144;BME280;14672;50.250;8.312;2022-08-03T02:21:31;98847.13;;;21.30;56.58
27144;BME280;14672;50.250;8.312;2022-08-03T02:23:58;98843.44;;;21.29;56.68
27144;BME280;14672;50.250;8.312;2022-08-03T02:26:29;98837.13;;;21.31;56.57
27144;BME280;14672;50.250;8.312;2022-08-03T02:29:01;98840.78;;;21.31;56.53
27144;BME280;14672;50.250;8.312;2022-08-03T02:31:31;98843.22;;;21.10;56.77
27144;BME280;14672;50.250;8.312;2022-08-03T02:34:03;98842.44;;;21.10;56.57
27144;BME280;14672;50.250;8.312;2022-08-03T02:36:36;98845.84;;;21.14;56.69
27144;BME280;14672;50.250;8.312;2022-08-03T02:39:03;98845.63;;;21.12;56.67
27144;BME280;14672;50.250;8.312;2022-08-03T02:41:36;98840.63;;;21.13;56.34
27144;BME280;14672;50.250;8.312;2022-08-03T02:44:07;98835.66;;;21.13;56.27
27144;BME280;14672;50.250;8.312;2022-08-03T02:46:38;98839.53;;;21.10;56.22
27144;BME280;14672;50.250;8.312;2022-08-03T02:49:06;98837.44;;;21.10;56.49
27144;BME280;14672;50.250;8.312;2022-08-03T02:51:34;98833.25;;;21.06;56.64
27144;BME280;14672;50.250;8.312;2022-08-03T02:54:05;98836.94;;;21.06;56.27
27144;BME280;14672;50.250;8.312;2022-08-03T02:56:34;98834.09;;;21.01;56.20
27144;BME280;14672;50.250;8.312;2022-08-03T02:59:02;98836.47;;;20.97;56.29
27144;BME280;14672;50.250;8.312;2022-08-03T03:01:30;98828.09;;;20.93;56.33
27144;BME280;14672;50.250;8.312;2022-08-03T03:03:57;98828.88;;;20.94;56.27
27144;BME280;14672;50.250;8.312;2022-08-03T03:06:25;98827.56;;;20.89;56.64
27144;BME280;14672;50.250;8.312;2022-08-03T03:08:54;98825.75;;;20.81;56.78
27144;BME280;14672;50.250;8.312;2022-08-03T03:11:21;98826.78;;;20.89;56.55
27144;BME280;14672;50.250;8.312;2022-08-03T03:13:48;98832.81;;;20.91;56.29
27144;BME280;14672;50.250;8.312;2022-08-03T03:16:15;98822.81;;;20.92;56.26
27144;BME280;14672;50.250;8.312;2022-08-03T03:18:44;98832.06;;;20.85;56.51
27144;BME280;14672;50.250;8.312;2022-08-03T03:21:12;98829.41;;;20.87;56.27
27144;BME280;14672;50.250;8.312;2022-08-03T03:23:41;98827.06;;;20.85;56.61
27144;BME280;14672;50.250;8.312;2022-08-03T03:26:08;98819.72;;;20.84;56.50
27144;BME280;14672;50.250;8.312;2022-08-03T03:28:34;98824.41;;;20.87;56.15
27144;BME280;14672;50.250;8.312;2022-08-03T03:31:03;98826.56;;;20.81;56.68
27144;BME280;14672;50.250;8.312;2022-08-03T03:33:32;98832.59;;;20.78;56.77
27144;BME280;14672;50.250;8.312;2022-08-03T03:35:59;98831.28;;;20.79;56.70
27144;BME280;14672;50.250;8.312;2022-08-03T03:38:25;98829.44;;;20.81;56.52
27144;BME280;14672;50.250;8.312;2022-08-03T03:40:52;98832.31;;;20.81;56.41
27144;BME280;14672;50.250;8.312;2022-08-03T03:43:18;98830.25;;;20.71;56.54
27144;BME280;14672;50.250;8.312;2022-08-03T03:45:45;98825.00;;;20.69;56.70
27144;BME280;14672;50.250;8.312;2022-08-03T03:48:12;98831.06;;;20.66;56.59
27144;BME280;14672;50.250;8.312;2022-08-03T03:50:38;98834.22;;;20.56;57.16
27144;BME280;14672;50.250;8.312;2022-08-03T03:53:11;98841.03;;;20.65;56.77
27144;BME280;14672;50.250;8.312;2022-08-03T03:55:38;98835.81;;;20.57;56.91
27144;BME280;14672;50.250;8.312;2022-08-03T03:58:05;98842.34;;;20.63;56.46
27144;BME280;14672;50.250;8.312;2022-08-03T04:00:32;98834.75;;;20.60;56.73
27144;BME280;14672;50.250;8.312;2022-08-03T04:02:58;98840.53;;;20.60;56.83
27144;BME280;14672;50.250;8.312;2022-08-03T04:05:24;98833.97;;;20.54;56.80
27144;BME280;14672;50.250;8.312;2022-08-03T04:08:17;98831.88;;;20.49;57.12
27144;BME280;14672;50.250;8.312;2022-08-03T04:11:52;98837.38;;;20.47;56.91
27144;BME280;14672;50.250;8.312;2022-08-03T04:14:28;98841.06;;;20.53;57.16
27144;BME280;14672;50.250;8.312;2022-08-03T04:17:06;98836.31;;;20.50;57.20
27144;BME280;14672;50.250;8.312;2022-08-03T04:19:41;98835.06;;;20.46;57.30
27144;BME280;14672;50.250;8.312;2022-08-03T04:22:13;98832.94;;;20.46;57.35
27144;BME280;14672;50.250;8.312;2022-08-03T04:24:54;98838.69;;;20.52;57.17
27144;BME280;14672;50.250;8.312;2022-08-03T04:27:26;98837.66;;;20.44;57.34
27144;BME280;14672;50.250;8.312;2022-08-03T04:29:54;98835.81;;;20.46;57.18
27144;BME280;14672;50.250;8.312;2022-08-03T04:32:22;98830.81;;;20.47;57.49
27144;BME280;14672;50.250;8.312;2022-08-03T04:34:53;98824.25;;;20.46;57.28
27144;BME280;14672;50.250;8.312;2022-08-03T04:40:01;98830.03;;;20.46;57.49
27144;BME280;14672;50.250;8.312;2022-08-03T04:42:28;98845.81;;;20.45;57.77
27144;BME280;14672;50.250;8.312;2022-08-03T04:44:56;98838.44;;;20.44;57.86
27144;BME280;14672;50.250;8.312;2022-08-03T04:47:23;98841.84;;;20.54;57.67
27144;BME280;14672;50.250;8.312;2022-08-03T04:49:50;98848.38;;;20.54;57.94
27144;BME280;14672;50.250;8.312;2022-08-03T04:52:17;98844.47;;;20.57;57.88
27144;BME280;14672;50.250;8.312;2022-08-03T04:54:47;98841.59;;;20.57;58.17
27144;BME280;14672;50.250;8.312;2022-08-03T04:57:14;98852.06;;;20.60;57.84
27144;BME280;14672;50.250;8.312;2022-08-03T04:59:40;98852.06;;;20.60;57.81
27144;BME280;14672;50.250;8.312;2022-08-03T05:02:06;98862.31;;;20.61;57.85
27144;BME280;14672;50.250;8.312;2022-08-03T05:04:32;98856.22;;;20.71;57.85
27144;BME280;14672;50.250;8.312;2022-08-03T05:06:57;98853.34;;;20.71;57.63
27144;BME280;14672;50.250;8.312;2022-08-03T05:09:23;98855.94;;;20.74;57.61
27144;BME280;14672;50.250;8.312;2022-08-03T05:11:49;98865.41;;;20.75;57.78
27144;BME280;14672;50.250;8.312;2022-08-03T05:14:15;98862.00;;;20.82;57.62
27144;BME280;14672;50.250;8.312;2022-08-03T05:16:41;98859.84;;;20.88;57.19
27144;BME280;14672;50.250;8.312;2022-08-03T05:19:07;98858.00;;;20.90;57.55
27144;BME280;14672;50.250;8.312;2022-08-03T05:21:33;98859.31;;;20.95;57.73
27144;BME280;14672;50.250;8.312;2022-08-03T05:23:59;98862.47;;;20.97;57.81
27144;BME280;14672;50.250;8.312;2022-08-03T05:26:30;98855.34;;;21.03;58.04
27144;BME280;14672;50.250;8.312;2022-08-03T05:28:56;98861.34;;;21.11;57.92
27144;BME280;14672;50.250;8.312;2022-08-03T05:31:22;98859.25;;;21.17;58.01
27144;BME280;14672;50.250;8.312;2022-08-03T05:33:48;98863.97;;;21.20;58.10
27144;BME280;14672;50.250;8.312;2022-08-03T05:36:14;98864.22;;;21.22;58.03
27144;BME280;14672;50.250;8.312;2022-08-03T05:38:40;98862.34;;;21.30;57.20
27144;BME280;14672;50.250;8.312;2022-08-03T05:41:06;98852.84;;;21.35;57.14
27144;BME280;14672;50.250;8.312;2022-08-03T05:43:32;98865.13;;;21.47;56.97
27144;BME280;14672;50.250;8.312;2022-08-03T05:45:58;98854.88;;;21.51;56.84
27144;BME280;14672;50.250;8.312;2022-08-03T05:48:28;98857.19;;;21.59;56.69
27144;BME280;14672;50.250;8.312;2022-08-03T05:51:00;98871.63;;;21.64;56.85
27144;BME280;14672;50.250;8.312;2022-08-03T05:53:26;98866.84;;;21.72;56.24
27144;BME280;14672;50.250;8.312;2022-08-03T05:55:54;98872.03;;;21.79;56.17
27144;BME280;14672;50.250;8.312;2022-08-03T05:58:20;98862.28;;;21.82;56.03
27144;BME280;14672;50.250;8.312;2022-08-03T06:00:52;98865.16;;;21.88;56.01
27144;BME280;14672;50.250;8.312;2022-08-03T06:03:18;98869.59;;;21.94;55.63
27144;BME280;14672;50.250;8.312;2022-08-03T06:05:45;98858.22;;;22.02;55.52
27144;BME280;14672;50.250;8.312;2022-08-03T06:08:13;98860.78;;;22.11;55.69
27144;BME280;14672;50.250;8.312;2022-08-03T06:10:39;98860.47;;;22.20;55.43
27144;BME280;14672;50.250;8.312;2022-08-03T06:13:12;98857.22;;;22.29;55.66
27144;BME280;14672;50.250;8.312;2022-08-03T06:15:42;98855.06;;;22.35;55.50
27144;BME280;14672;50.250;8.312;2022-08-03T06:18:08;98857.06;;;22.46;55.47
27144;BME280;14672;50.250;8.312;2022-08-03T06:20:33;98851.16;;;22.57;55.06
27144;BME280;14672;50.250;8.312;2022-08-03T06:22:59;98857.38;;;22.67;54.88
27144;BME280;14672;50.250;8.312;2022-08-03T06:25:26;98862.59;;;22.74;54.69
27144;BME280;14672;50.250;8.312;2022-08-03T06:27:52;98860.59;;;22.87;54.32
27144;BME280;14672;50.250;8.312;2022-08-03T06:30:18;98862.66;;;22.92;54.21
27144;BME280;14672;50.250;8.312;2022-08-03T06:32:44;98858.38;;;22.99;54.17
27144;BME280;14672;50.250;8.312;2022-08-03T06:35:09;98860.09;;;23.08;54.12
27144;BME280;14672;50.250;8.312;2022-08-03T06:37:47;98862.91;;;23.13;53.96
27144;BME280;14672;50.250;8.312;2022-08-03T06:40:17;98864.66;;;23.22;53.65
27144;BME280;14672;50.250;8.312;2022-08-03T06:42:43;98850.81;;;23.33;52.77
27144;BME280;14672;50.250;8.312;2022-08-03T07:43:06;98854.66;;;25.53;46.75
27144;BME280;14672;50.250;8.312;2022-08-03T07:45:32;98848.84;;;25.66;46.02
27144;BME280;14672;50.250;8.312;2022-08-03T07:47:58;98857.09;;;25.76;45.85
27144;BME280;14672;50.250;8.312;2022-08-03T07:50:24;98850.41;;;25.88;45.31
27144;BME280;14672;50.250;8.312;2022-08-03T07:52:51;98857.19;;;26.04;45.29
27144;BME280;14672;50.250;8.312;2022-08-03T07:55:21;98849.00;;;26.15;45.22
27144;BME280;14672;50.250;8.312;2022-08-03T07:58:05;98847.34;;;26.28;45.28
27144;BME280;14672;50.250;8.312;2022-08-03T08:00:33;98855.47;;;26.42;44.89
27144;BME280;14672;50.250;8.312;2022-08-03T08:02:59;98844.50;;;26.56;44.10
27144;BME280;14672;50.250;8.312;2022-08-03T08:05:25;98847.16;;;26.67;43.84
27144;BME280;14672;50.250;8.312;2022-08-03T08:07:51;98846.84;;;26.78;44.36
27144;BME280;14672;50.250;8.312;2022-08-03T08:10:17;98833.31;;;26.88;43.79
27144;BME280;14672;50.250;8.312;2022-08-03T08:12:43;98837.09;;;27.04;44.56
27144;BME280;14672;50.250;8.312;2022-08-03T08:15:09;98837.16;;;27.12;43.54
27144;BME280;14672;50.250;8.312;2022-08-03T08:17:50;98839.19;;;27.24;42.84
27144;BME280;14672;50.250;8.312;2022-08-03T08:20:22;98831.25;;;27.32;43.07
27144;BME280;14672;50.250;8.312;2022-08-03T08:22:49;98828.34;;;27.40;43.00
27144;BME280;14672;50.250;8.312;2022-08-03T08:25:15;98832.34;;;27.50;42.54
27144;BME280;14672;50.250;8.312;2022-08-03T08:30:08;98834.75;;;27.67;42.16
27144;BME280;14672;50.250;8.312;2022-08-03T08:32:34;98833.38;;;27.75;42.16
27144;BME280;14672;50.250;8.312;2022-08-03T08:35:05;98828.16;;;27.81;41.81
27144;BME280;14672;50.250;8.312;2022-08-03T08:37:32;98828.38;;;27.91;42.04
27144;BME280;14672;50.250;8.312;2022-08-03T08:39:58;98832.88;;;27.99;41.99
27144;BME280;14672;50.250;8.312;2022-08-03T08:42:24;98825.94;;;28.10;42.13
27144;BME280;14672;50.250;8.312;2022-08-03T08:44:51;98833.13;;;28.17;42.10
27144;BME280;14672;50.250;8.312;2022-08-03T08:47:24;98823.41;;;28.22;41.42
27144;BME280;14672;50.250;8.312;2022-08-03T08:49:54;98821.69;;;28.34;41.32
27144;BME280;14672;50.250;8.312;2022-08-03T08:52:25;98828.88;;;28.40;41.34
27144;BME280;14672;50.250;8.312;2022-08-03T08:54:59;98825.78;;;28.46;40.18
27144;BME280;14672;50.250;8.312;2022-08-03T08:57:37;98827.13;;;28.53;39.71
27144;BME280;14672;50.250;8.312;2022-08-03T09:00:08;98826.16;;;28.58;39.73
27144;BME280;14672;50.250;8.312;2022-08-03T09:02:38;98823.22;;;28.65;39.72
27144;BME280;14672;50.250;8.312;2022-08-03T09:05:13;98824.03;;;28.73;38.84
27144;BME280;14672;50.250;8.312;2022-08-03T09:07:42;98822.25;;;28.63;38.30
27144;BME280;14672;50.250;8.312;2022-08-03T09:10:10;98817.81;;;28.69;38.08
27144;BME280;14672;50.250;8.312;2022-08-03T09:12:41;98811.53;;;28.80;38.97
27144;BME280;14672;50.250;8.312;2022-08-03T09:15:31;98824.19;;;28.90;38.75
27144;BME280;14672;50.250;8.312;2022-08-03T09:18:01;98829.28;;;28.90;37.80
27144;BME280;14672;50.250;8.312;2022-08-03T09:20:30;98821.06;;;28.96;37.69
27144;BME280;14672;50.250;8.312;2022-08-03T09:23:06;98821.06;;;29.04;37.52
27144;BME280;14672;50.250;8.312;2022-08-03T09:25:37;98824.38;;;29.00;37.58
27144;BME280;14672;50.250;8.312;2022-08-03T09:28:11;98823.41;;;29.05;38.05
27144;BME280;14672;50.250;8.312;2022-08-03T09:30:41;98816.72;;;29.20;38.75
27144;BME280;14672;50.250;8.312;2022-08-03T09:33:11;98833.09;;;29.23;37.37
27144;BME280;14672;50.250;8.312;2022-08-03T09:35:43;98824.53;;;29.17;37.46
27144;BME280;14672;50.250;8.312;2022-08-03T09:38:15;98826.88;;;29.34;37.74
27144;BME280;14672;50.250;8.312;2022-08-03T09:40:42;98818.22;;;29.44;37.95
27144;BME280;14672;50.250;8.312;2022-08-03T09:43:09;98822.56;;;29.35;36.83
27144;BME280;14672;50.250;8.312;2022-08-03T09:45:37;98819.19;;;29.46;36.94
27144;BME280;14672;50.250;8.312;2022-08-03T09:48:27;98812.75;;;29.48;36.39
27144;BME280;14672;50.250;8.312;2022-08-03T09:50:59;98814.44;;;29.58;36.97
27144;BME280;14672;50.250;8.312;2022-08-03T09:53:26;98815.97;;;29.67;37.21
27144;BME280;14672;50.250;8.312;2022-08-03T09:58:24;98811.84;;;29.77;36.69
27144;BME280;14672;50.250;8.312;2022-08-03T10:01:02;98812.22;;;29.81;35.74
27144;BME280;14672;50.250;8.312;2022-08-03T10:03:32;98800.66;;;29.83;35.73
27144;BME280;14672;50.250;8.312;2022-08-03T10:05:58;98799.44;;;29.94;36.22
27144;BME280;14672;50.250;8.312;2022-08-03T10:08:38;98804.44;;;30.09;36.02
27144;BME280;14672;50.250;8.312;2022-08-03T10:11:04;98805.81;;;30.08;35.62
27144;BME280;14672;50.250;8.312;2022-08-03T10:13:30;98801.28;;;30.14;35.41
27144;BME280;14672;50.250;8.312;2022-08-03T10:15:56;98802.19;;;30.24;35.17
27144;BME280;14672;50.250;8.312;2022-08-03T10:18:22;98788.47;;;30.27;35.09
27144;BME280;14672;50.250;8.312;2022-08-03T10:20:52;98780.97;;;30.41;35.66
27144;BME280;14672;50.250;8.312;2022-08-03T10:23:19;98790.66;;;30.51;35.26
27144;BME280;14672;50.250;8.312;2022-08-03T10:25:48;98788.28;;;30.57;35.28
27144;BME280;14672;50.250;8.312;2022-08-03T10:28:25;98784.38;;;30.55;34.83
27144;BME280;14672;50.250;8.312;2022-08-03T10:30:54;98782.69;;;30.69;34.82
27144;BME280;14672;50.250;8.312;2022-08-03T10:33:25;98779.69;;;30.76;34.68
27144;BME280;14672;50.250;8.312;2022-08-03T10:35:55;98782.88;;;30.88;34.82
27144;BME280;14672;50.250;8.312;2022-08-03T10:38:28;98771.16;;;30.88;34.03
27144;BME280;14672;50.250;8.312;2022-08-03T10:40:58;98779.22;;;31.05;34.69
27144;BME280;14672;50.250;8.312;2022-08-03T10:43:33;98775.06;;;31.08;34.19
27144;BME280;14672;50.250;8.312;2022-08-03T10:46:03;98766.94;;;31.16;33.97
27144;BME280;14672;50.250;8.312;2022-08-03T10:48:31;98762.25;;;31.30;34.52
27144;BME280;14672;50.250;8.312;2022-08-03T10:50:57;98763.13;;;31.40;34.05
27144;BME280;14672;50.250;8.312;2022-08-03T10:53:38;98766.22;;;31.42;33.91
27144;BME280;14672;50.250;8.312;2022-08-03T10:56:05;98754.94;;;31.56;33.46
27144;BME280;14672;50.250;8.312;2022-08-03T10:58:53;98759.47;;;31.49;33.06
27144;BME280;14672;50.250;8.312;2022-08-03T11:01:55;98761.75;;;31.58;32.96
27144;BME280;14672;50.250;8.312;2022-08-03T11:04:24;98754.56;;;31.69;33.21
27144;BME280;14672;50.250;8.312;2022-08-03T11:07:20;98741.47;;;31.80;33.04
27144;BME280;14672;50.250;8.312;2022-08-03T11:09:53;98744.88;;;31.86;33.19
27144;BME280;14672;50.250;8.312;2022-08-03T11:12:31;98743.13;;;32.00;32.98
27144;BME280;14672;50.250;8.312;2022-08-03T11:15:03;98739.78;;;32.13;33.47
27144;BME280;14672;50.250;8.312;2022-08-03T11:17:29;98744.13;;;32.12;32.49
27144;BME280;14672;50.250;8.312;2022-08-03T11:19:56;98740.88;;;32.18;32.11
27144;BME280;14672;50.250;8.312;2022-08-03T11:22:22;98735.19;;;32.20;32.09
27144;BME280;14672;50.250;8.312;2022-08-03T11:27:28;98734.19;;;32.44;31.96
27144;BME280;14672;50.250;8.312;2022-08-03T11:35:26;98738.44;;;32.70;31.38
27144;BME280;14672;50.250;8.312;2022-08-03T11:40:48;98743.72;;;32.81;30.85
27144;BME280;14672;50.250;8.312;2022-08-03T11:46:12;98736.00;;;32.95;31.04
27144;BME280;14672;50.250;8.312;2022-08-03T11:48:47;98736.84;;;33.24;31.75
27144;BME280;14672;50.250;8.312;2022-08-03T11:51:26;98731.84;;;33.27;30.86
27144;BME280;14672;50.250;8.312;2022-08-03T11:53:58;98737.59;;;33.34;30.48
27144;BME280;14672;50.250;8.312;2022-08-03T11:56:27;98735.25;;;33.33;30.00
27144;BME280;14672;50.250;8.312;2022-08-03T11:58:56;98730.75;;;33.41;30.11
27144;BME280;14672;50.250;8.312;2022-08-03T12:01:23;98732.91;;;33.50;29.54
27144;BME280;14672;50.250;8.312;2022-08-03T12:03:50;98724.53;;;33.66;30.13
27144;BME280;14672;50.250;8.312;2022-08-03T12:06:17;98731.16;;;33.86;31.28
27144;BME280;14672;50.250;8.312;2022-08-03T12:08:44;98710.94;;;34.02;30.90
27144;BME280;14672;50.250;8.312;2022-08-03T12:11:14;98723.94;;;34.18;30.72
27144;BME280;14672;50.250;8.312;2022-08-03T12:13:47;98713.50;;;34.26;30.88
27144;BME280;14672;50.250;8.312;2022-08-03T12:16:22;98713.19;;;34.13;29.19
27144;BME280;14672;50.250;8.312;2022-08-03T12:19:04;98713.50;;;34.26;29.20
27144;BME280;14672;50.250;8.312;2022-08-03T12:21:31;98702.50;;;34.48;29.23
27144;BME280;14672;50.250;8.312;2022-08-03T12:24:00;98711.41;;;34.38;28.82
27144;BME280;14672;50.250;8.312;2022-08-03T12:26:49;98708.84;;;34.54;29.41
27144;BME280;14672;50.250;8.312;2022-08-03T12:29:21;98701.44;;;34.74;29.64
27144;BME280;14672;50.250;8.312;2022-08-03T12:31:50;98707.66;;;34.69;28.74
27144;BME280;14672;50.250;8.312;2022-08-03T12:34:16;98701.56;;;34.76;28.49
27144;BME280;14672;50.250;8.312;2022-08-03T12:36:54;98701.06;;;34.80;28.79
27144;BME280;14672;50.250;8.312;2022-08-03T12:39:25;98707.63;;;34.78;28.62
27144;BME280;14672;50.250;8.312;2022-08-03T12:41:56;98703.44;;;34.93;28.19
27144;BME280;14672;50.250;8.312;2022-08-03T12:44:34;98698.25;;;35.03;28.09
27144;BME280;14672;50.250;8.312;2022-08-03T12:47:03;98691.19;;;35.08;27.68
27144;BME280;14672;50.250;8.312;2022-08-03T12:50:04;98693.97;;;34.95;28.12
27144;BME280;14672;50.250;8.312;2022-08-03T12:52:42;98693.22;;;35.15;28.70
27144;BME280;14672;50.250;8.312;2022-08-03T12:55:19;98698.53;;;35.40;29.01
27144;BME280;14672;50.250;8.312;2022-08-03T12:57:45;98688.91;;;35.40;27.72
27144;BME280;14672;50.250;8.312;2022-08-03T13:00:18;98681.13;;;35.56;28.25
27144;BME280;14672;50.250;8.312;2022-08-03T13:02:44;98676.56;;;35.76;27.91
27144;BME280;14672;50.250;8.312;2022-08-03T13:05:12;98681.97;;;35.91;27.86
27144;BME280;14672;50.250;8.312;2022-08-03T13:07:43;98672.47;;;36.04;27.77
27144;BME280;14672;50.250;8.312;2022-08-03T13:10:10;98655.78;;;36.09;27.42
27144;BME280;14672;50.250;8.312;2022-08-03T13:12:48;98688.16;;;35.95;26.47
27144;BME280;14672;50.250;8.312;2022-08-03T13:15:14;98685.59;;;35.78;26.45
27144;BME280;14672;50.250;8.312;2022-08-03T13:17:41;98681.69;;;35.75;26.70
27144;BME280;14672;50.250;8.312;2022-08-03T13:20:07;98665.00;;;35.80;26.82
27144;BME280;14672;50.250;8.312;2022-08-03T13:22:33;98676.31;;;35.84;26.45
27144;BME280;14672;50.250;8.312;2022-08-03T13:25:00;98679.69;;;36.01;27.24
27144;BME280;14672;50.250;8.312;2022-08-03T13:27:28;98672.72;;;35.85;26.80
27144;BME280;14672;50.250;8.312;2022-08-03T13:29:55;98675.31;;;36.02;26.58
27144;BME280;14672;50.250;8.312;2022-08-03T13:32:22;98674.69;;;36.15;26.75
27144;BME280;14672;50.250;8.312;2022-08-03T13:34:48;98672.50;;;36.16;26.29
27144;BME280;14672;50.250;8.312;2022-08-03T13:37:14;98668.13;;;36.05;26.00
27144;BME280;14672;50.250;8.312;2022-08-03T13:39:41;98670.69;;;35.99;26.23
27144;BME280;14672;50.250;8.312;2022-08-03T13:42:09;98660.78;;;35.95;26.45
27144;BME280;14672;50.250;8.312;2022-08-03T13:44:35;98664.81;;;36.11;26.72
27144;BME280;14672;50.250;8.312;2022-08-03T13:47:04;98653.34;;;36.17;26.51
27144;BME280;14672;50.250;8.312;2022-08-03T13:49:30;98644.22;;;36.24;26.70
27144;BME280;14672;50.250;8.312;2022-08-03T13:51:56;98651.66;;;36.37;26.55
27144;BME280;14672;50.250;8.312;2022-08-03T13:54:22;98646.13;;;36.43;26.40
27144;BME280;14672;50.250;8.312;2022-08-03T13:56:49;98634.97;;;36.30;26.30
27144;BME280;14672;50.250;8.312;2022-08-03T13:59:22;98631.06;;;36.51;26.51
27144;BME280;14672;50.250;8.312;2022-08-03T14:01:50;98635.03;;;36.67;26.49
27144;BME280;14672;50.250;8.312;2022-08-03T14:04:17;98637.78;;;36.88;26.98
27144;BME280;14672;50.250;8.312;2022-08-03T14:06:43;98635.97;;;37.06;26.45
27144;BME280;14672;50.250;8.312;2022-08-03T14:09:14;98623.22;;;37.29;26.76
27144;BME280;14672;50.250;8.312;2022-08-03T14:11:41;98634.28;;;37.29;26.23
27144;BME280;14672;50.250;8.312;2022-08-03T14:14:07;98629.53;;;37.49;26.78
27144;BME280;14672;50.250;8.312;2022-08-03T14:16:36;98620.06;;;37.64;26.46
27144;BME280;14672;50.250;8.312;2022-08-03T14:19:05;98621.03;;;37.30;25.35
27144;BME280;14672;50.250;8.312;2022-08-03T14:21:33;98621.25;;;37.34;25.30
27144;BME280;14672;50.250;8.312;2022-08-03T14:23:59;98612.41;;;37.47;25.66
27144;BME280;14672;50.250;8.312;2022-08-03T14:26:29;98620.28;;;37.68;25.74
27144;BME280;14672;50.250;8.312;2022-08-03T14:28:58;98610.38;;;37.50;25.00
27144;BME280;14672;50.250;8.312;2022-08-03T14:31:24;98614.97;;;37.53;25.47
27144;BME280;14672;50.250;8.312;2022-08-03T14:33:52;98620.38;;;37.56;25.24
27144;BME280;14672;50.250;8.312;2022-08-03T14:36:24;98609.50;;;37.61;25.16
27144;BME280;14672;50.250;8.312;2022-08-03T14:38:50;98615.31;;;37.59;24.87
27144;BME280;14672;50.250;8.312;2022-08-03T14:41:18;98603.34;;;37.57;24.94
27144;BME280;14672;50.250;8.312;2022-08-03T14:43:44;98613.56;;;37.54;24.62
27144;BME280;14672;50.250;8.312;2022-08-03T14:46:12;98606.78;;;37.65;24.53
27144;BME280;14672;50.250;8.312;2022-08-03T14:48:38;98604.59;;;37.79;25.10
27144;BME280;14672;50.250;8.312;2022-08-03T14:51:05;98600.75;;;37.90;24.83